sensor_id;sensor_type;location;lat;lon;timestamp;temperature;humidity
8372;DHT22;4223;48.724;8.982;2022-10-16T00:02:22;14.40;99.90
8372;DHT22;4223;48.724;8.982;2022-10-16T00:04:49;14.30;99.90
8372;DHT22;4223;48.724;8.982;2022-10-16T00:07:15;14.30;99.90
8372;DHT22;4223;48.724;8.982;2022-10-16T00:09:42;14.20;99.90
8372;DHT22;4223;48.724;8.982;2022-10-16T00:12:09;14.10;99.90
8372;DHT22;4223;48.724;8.982;2022-10-16T00:14:36;14.10;99.90
8372;DHT22;4223;48.724;8.982;2022-10-16T00:17:04;14.00;99.90
8372;DHT22;4223;48.724;8.982;2022-10-16T00:19:31;13.90;99.90
8372;DHT22;4223;48.724;8.982;2022-10-16T00:21:58;13.90;99.90
8372;DHT22;4223;48.724;8.982;2022-10-16T00:24:24;13.90;99.90
8372;DHT22;4223;48.724;8.982;2022-10-16T00:26:51;13.90;99.90
8372;DHT22;4223;48.724;8.982;2022-10-16T00:29:18;13.90;99.90
8372;DHT22;4223;48.724;8.982;2022-10-16T00:31:45;13.90;99.90
8372;DHT22;4223;48.724;8.982;2022-10-16T00:34:13;13.90;99.90
8372;DHT22;4223;48.724;8.982;2022-10-16T00:36:40;13.90;99.90
8372;DHT22;4223;48.724;8.982;2022-10-16T00:39:07;13.90;99.90
8372;DHT22;4223;48.724;8.982;2022-10-16T00:41:34;13.90;99.90
8372;DHT22;4223;48.724;8.982;2022-10-16T00:44:03;13.90;99.90
8372;DHT22;4223;48.724;8.982;2022-10-16T00:46:38;13.90;99.90
8372;DHT22;4223;48.724;8.982;2022-10-16T00:49:08;13.80;99.90
8372;DHT22;4223;48.724;8.982;2022-10-16T00:51:39;13.90;99.90
8372;DHT22;4223;48.724;8.982;2022-10-16T00:54:10;13.80;99.90
8372;DHT22;4223;48.724;8.982;2022-10-16T00:56:38;13.80;99.90
8372;DHT22;4223;48.724;8.982;2022-10-16T00:59:13;13.80;99.90
8372;DHT22;4223;48.724;8.982;2022-10-16T01:01:41;13.80;99.90
8372;DHT22;4223;48.724;8.982;2022-10-16T01:04:08;13.80;99.90
8372;DHT22;4223;48.724;8.982;2022-10-16T01:06:42;13.80;99.90
8372;DHT22;4223;48.724;8.982;2022-10-16T01:09:16;13.80;99.90
8372;DHT22;4223;48.724;8.982;2022-10-16T01:11:54;13.70;99.90
8372;DHT22;4223;48.724;8.982;2022-10-16T01:14:29;13.80;99.90
8372;DHT22;4223;48.724;8.982;2022-10-16T01:17:01;13.80;99.90
8372;DHT22;4223;48.724;8.982;2022-10-16T01:19:50;13.80;99.90
8372;DHT22;4223;48.724;8.982;2022-10-16T01:22:22;13.80;99.90
8372;DHT22;4223;48.724;8.982;2022-10-16T01:24:52;13.80;99.90
8372;DHT22;4223;48.724;8.982;2022-10-16T01:27:25;13.80;99.90
8372;DHT22;4223;48.724;8.982;2022-10-16T01:29:54;13.80;99.90
8372;DHT22;4223;48.724;8.982;2022-10-16T01:32:28;13.80;99.90
8372;DHT22;4223;48.724;8.982;2022-10-16T01:35:01;13.80;99.90
8372;DHT22;4223;48.724;8.982;2022-10-16T01:37:33;13.90;99.90
8372;DHT22;4223;48.724;8.982;2022-10-16T01:40:05;13.90;99.90
8372;DHT22;4223;48.724;8.982;2022-10-16T01:42:35;13.90;99.90
8372;DHT22;4223;48.724;8.982;2022-10-16T01:45:05;13.90;99.90
8372;DHT22;4223;48.724;8.982;2022-10-16T01:47:34;13.90;99.90
8372;DHT22;4223;48.724;8.982;2022-10-16T01:50:04;13.80;99.90
8372;DHT22;4223;48.724;8.982;2022-10-16T01:52:34;13.90;99.90
8372;DHT22;4223;48.724;8.982;2022-10-16T01:55:05;13.90;99.90
8372;DHT22;4223;48.724;8.982;2022-10-16T01:57:36;13.90;99.90
8372;DHT22;4223;48.724;8.982;2022-10-16T02:00:08;13.90;99.90
8372;DHT22;4223;48.724;8.982;2022-10-16T02:02:38;13.90;99.90
8372;DHT22;4223;48.724;8.982;2022-10-16T02:05:12;14.00;99.90
8372;DHT22;4223;48.724;8.982;2022-10-16T02:07:41;14.00;99.90
8372;DHT22;4223;48.724;8.982;2022-10-16T02:10:09;14.00;99.90
8372;DHT22;4223;48.724;8.982;2022-10-16T02:12:40;14.00;99.90
8372;DHT22;4223;48.724;8.982;2022-10-16T02:15:09;14.00;99.90
8372;DHT22;4223;48.724;8.982;2022-10-16T02:17:35;14.00;99.90
8372;DHT22;4223;48.724;8.982;2022-10-16T02:20:03;14.00;99.90
8372;DHT22;4223;48.724;8.982;2022-10-16T02:22:33;14.00;99.90
8372;DHT22;4223;48.724;8.982;2022-10-16T02:25:04;14.00;99.90
8372;DHT22;4223;48.724;8.982;2022-10-16T02:27:38;14.00;99.90
8372;DHT22;4223;48.724;8.982;2022-10-16T02:30:11;13.90;99.90
8372;DHT22;4223;48.724;8.982;2022-10-16T02:32:42;13.90;99.90
8372;DHT22;4223;48.724;8.982;2022-10-16T02:35:10;13.90;99.90
8372;DHT22;4223;48.724;8.982;2022-10-16T02:37:38;14.00;99.90
8372;DHT22;4223;48.724;8.982;2022-10-16T02:40:08;13.90;99.90
8372;DHT22;4223;48.724;8.982;2022-10-16T02:42:38;14.00;99.90
8372;DHT22;4223;48.724;8.982;2022-10-16T02:45:05;13.90;99.90
8372;DHT22;4223;48.724;8.982;2022-10-16T02:47:33;13.90;99.90
8372;DHT22;4223;48.724;8.982;2022-10-16T02:50:00;13.90;99.90
8372;DHT22;4223;48.724;8.982;2022-10-16T02:52:27;13.90;99.90
8372;DHT22;4223;48.724;8.982;2022-10-16T02:54:54;14.00;99.90
8372;DHT22;4223;48.724;8.982;2022-10-16T02:57:20;13.90;99.90
8372;DHT22;4223;48.724;8.982;2022-10-16T02:59:49;13.90;99.90
8372;DHT22;4223;48.724;8.982;2022-10-16T03:02:15;13.90;99.90
8372;DHT22;4223;48.724;8.982;2022-10-16T03:04:42;14.00;99.90
8372;DHT22;4223;48.724;8.982;2022-10-16T03:07:09;14.00;99.90
8372;DHT22;4223;48.724;8.982;2022-10-16T03:09:36;14.00;99.90
8372;DHT22;4223;48.724;8.982;2022-10-16T03:12:03;14.00;99.90
8372;DHT22;4223;48.724;8.982;2022-10-16T03:14:30;14.00;99.90
8372;DHT22;4223;48.724;8.982;2022-10-16T03:16:58;14.00;99.90
8372;DHT22;4223;48.724;8.982;2022-10-16T03:19:25;14.10;99.90
8372;DHT22;4223;48.724;8.982;2022-10-16T03:21:52;14.10;99.90
8372;DHT22;4223;48.724;8.982;2022-10-16T03:24:19;14.10;99.90
8372;DHT22;4223;48.724;8.982;2022-10-16T03:26:46;14.10;99.90
8372;DHT22;4223;48.724;8.982;2022-10-16T03:29:13;14.10;99.90
8372;DHT22;4223;48.724;8.982;2022-10-16T03:31:39;14.00;99.90
8372;DHT22;4223;48.724;8.982;2022-10-16T03:34:08;14.10;99.90
8372;DHT22;4223;48.724;8.982;2022-10-16T03:36:35;14.10;99.90
8372;DHT22;4223;48.724;8.982;2022-10-16T03:39:02;14.10;99.90
8372;DHT22;4223;48.724;8.982;2022-10-16T03:41:29;14.00;99.90
8372;DHT22;4223;48.724;8.982;2022-10-16T03:43:55;14.00;99.90
8372;DHT22;4223;48.724;8.982;2022-10-16T03:46:22;14.00;99.90
8372;DHT22;4223;48.724;8.982;2022-10-16T03:48:49;14.00;99.90
8372;DHT22;4223;48.724;8.982;2022-10-16T03:51:17;14.00;99.90
8372;DHT22;4223;48.724;8.982;2022-10-16T03:53:44;14.00;99.90
8372;DHT22;4223;48.724;8.982;2022-10-16T03:56:11;13.90;99.90
8372;DHT22;4223;48.724;8.982;2022-10-16T03:58:38;13.90;99.90
8372;DHT22;4223;48.724;8.982;2022-10-16T04:01:05;13.90;99.90
8372;DHT22;4223;48.724;8.982;2022-10-16T04:03:32;13.90;99.90
8372;DHT22;4223;48.724;8.982;2022-10-16T04:05:59;13.90;99.90
8372;DHT22;4223;48.724;8.982;2022-10-16T04:08:27;13.90;99.90
8372;DHT22;4223;48.724;8.982;2022-10-16T04:10:54;13.90;99.90
8372;DHT22;4223;48.724;8.982;2022-10-16T04:13:21;13.90;99.90
8372;DHT22;4223;48.724;8.982;2022-10-16T04:15:47;13.90;99.90
8372;DHT22;4223;48.724;8.982;2022-10-16T04:18:14;13.90;99.90
8372;DHT22;4223;48.724;8.982;2022-10-16T04:20:41;13.90;99.90
8372;DHT22;4223;48.724;8.982;2022-10-16T04:23:08;13.90;99.90
8372;DHT22;4223;48.724;8.982;2022-10-16T04:25:36;13.90;99.90
8372;DHT22;4223;48.724;8.982;2022-10-16T04:28:03;13.80;99.90
8372;DHT22;4223;48.724;8.982;2022-10-16T04:30:30;13.90;99.90
8372;DHT22;4223;48.724;8.982;2022-10-16T04:32:59;13.90;99.90
8372;DHT22;4223;48.724;8.982;2022-10-16T04:35:25;13.90;99.90
8372;DHT22;4223;48.724;8.982;2022-10-16T04:37:52;13.90;99.90
8372;DHT22;4223;48.724;8.982;2022-10-16T04:40:19;13.90;99.90
8372;DHT22;4223;48.724;8.982;2022-10-16T04:42:47;13.90;99.90
8372;DHT22;4223;48.724;8.982;2022-10-16T04:45:14;13.90;99.90
8372;DHT22;4223;48.724;8.982;2022-10-16T04:47:41;13.90;99.90
8372;DHT22;4223;48.724;8.982;2022-10-16T04:50:08;13.90;99.90
8372;DHT22;4223;48.724;8.982;2022-10-16T04:52:36;13.90;99.90
8372;DHT22;4223;48.724;8.982;2022-10-16T04:55:03;13.90;99.90
8372;DHT22;4223;48.724;8.982;2022-10-16T04:57:30;13.90;99.90
8372;DHT22;4223;48.724;8.982;2022-10-16T05:00:00;13.90;99.90
8372;DHT22;4223;48.724;8.982;2022-10-16T05:02:28;13.90;99.90
8372;DHT22;4223;48.724;8.982;2022-10-16T05:04:55;13.90;99.90
8372;DHT22;4223;48.724;8.982;2022-10-16T05:07:22;13.90;99.90
8372;DHT22;4223;48.724;8.982;2022-10-16T05:09:48;13.90;99.90
8372;DHT22;4223;48.724;8.982;2022-10-16T05:12:15;13.90;99.90
8372;DHT22;4223;48.724;8.982;2022-10-16T05:14:42;13.80;99.90
8372;DHT22;4223;48.724;8.982;2022-10-16T05:17:10;13.70;99.90
8372;DHT22;4223;48.724;8.982;2022-10-16T05:19:37;13.70;99.90
8372;DHT22;4223;48.724;8.982;2022-10-16T05:22:04;13.70;99.90
8372;DHT22;4223;48.724;8.982;2022-10-16T05:24:31;13.70;99.90
8372;DHT22;4223;48.724;8.982;2022-10-16T05:26:58;13.70;99.90
8372;DHT22;4223;48.724;8.982;2022-10-16T05:29:25;13.70;99.90
8372;DHT22;4223;48.724;8.982;2022-10-16T05:31:52;13.60;99.90
8372;DHT22;4223;48.724;8.982;2022-10-16T05:34:20;13.60;99.90
8372;DHT22;4223;48.724;8.982;2022-10-16T05:36:47;13.60;99.90
8372;DHT22;4223;48.724;8.982;2022-10-16T05:39:15;13.60;99.90
8372;DHT22;4223;48.724;8.982;2022-10-16T05:41:42;13.60;99.90
8372;DHT22;4223;48.724;8.982;2022-10-16T05:44:09;13.60;99.90
8372;DHT22;4223;48.724;8.982;2022-10-16T05:46:36;13.70;99.90
8372;DHT22;4223;48.724;8.982;2022-10-16T05:49:02;13.70;99.90
8372;DHT22;4223;48.724;8.982;2022-10-16T05:51:31;13.80;99.90
8372;DHT22;4223;48.724;8.982;2022-10-16T05:53:58;13.80;99.90
8372;DHT22;4223;48.724;8.982;2022-10-16T05:56:24;13.80;99.90
8372;DHT22;4223;48.724;8.982;2022-10-16T05:58:51;13.80;99.90
8372;DHT22;4223;48.724;8.982;2022-10-16T06:01:19;13.80;99.90
8372;DHT22;4223;48.724;8.982;2022-10-16T06:03:49;13.90;99.90
8372;DHT22;4223;48.724;8.982;2022-10-16T06:06:18;13.90;99.90
8372;DHT22;4223;48.724;8.982;2022-10-16T06:08:47;13.90;99.90
8372;DHT22;4223;48.724;8.982;2022-10-16T06:11:16;13.90;99.90
8372;DHT22;4223;48.724;8.982;2022-10-16T06:13:43;13.90;99.90
8372;DHT22;4223;48.724;8.982;2022-10-16T06:16:12;13.90;99.90
8372;DHT22;4223;48.724;8.982;2022-10-16T06:18:39;13.90;99.90
8372;DHT22;4223;48.724;8.982;2022-10-16T06:21:10;13.90;99.90
8372;DHT22;4223;48.724;8.982;2022-10-16T06:23:38;13.90;99.90
8372;DHT22;4223;48.724;8.982;2022-10-16T06:26:07;13.90;99.90
8372;DHT22;4223;48.724;8.982;2022-10-16T06:28:34;13.90;99.90
8372;DHT22;4223;48.724;8.982;2022-10-16T06:31:01;13.90;99.90
8372;DHT22;4223;48.724;8.982;2022-10-16T06:33:29;14.00;99.90
8372;DHT22;4223;48.724;8.982;2022-10-16T06:36:00;14.00;99.90
8372;DHT22;4223;48.724;8.982;2022-10-16T06:38:27;14.00;99.90
8372;DHT22;4223;48.724;8.982;2022-10-16T06:40:54;14.00;99.90
8372;DHT22;4223;48.724;8.982;2022-10-16T06:43:23;14.10;99.90
8372;DHT22;4223;48.724;8.982;2022-10-16T06:45:53;14.20;99.90
8372;DHT22;4223;48.724;8.982;2022-10-16T06:48:20;14.20;99.90
8372;DHT22;4223;48.724;8.982;2022-10-16T06:50:56;14.20;99.90
8372;DHT22;4223;48.724;8.982;2022-10-16T06:53:23;14.20;99.90
8372;DHT22;4223;48.724;8.982;2022-10-16T06:55:50;14.30;99.90
8372;DHT22;4223;48.724;8.982;2022-10-16T06:58:21;14.40;99.90
8372;DHT22;4223;48.724;8.982;2022-10-16T07:00:55;14.40;99.90
8372;DHT22;4223;48.724;8.982;2022-10-16T07:03:22;14.50;99.90
8372;DHT22;4223;48.724;8.982;2022-10-16T07:05:49;14.60;99.90
8372;DHT22;4223;48.724;8.982;2022-10-16T07:08:16;14.70;99.90
8372;DHT22;4223;48.724;8.982;2022-10-16T07:10:43;14.70;99.90
8372;DHT22;4223;48.724;8.982;2022-10-16T07:13:16;14.80;99.90
8372;DHT22;4223;48.724;8.982;2022-10-16T07:15:42;14.80;99.90
8372;DHT22;4223;48.724;8.982;2022-10-16T07:18:11;14.80;99.90
8372;DHT22;4223;48.724;8.982;2022-10-16T07:20:37;14.80;99.90
8372;DHT22;4223;48.724;8.982;2022-10-16T07:23:04;14.80;99.90
8372;DHT22;4223;48.724;8.982;2022-10-16T07:25:31;14.70;99.90
8372;DHT22;4223;48.724;8.982;2022-10-16T07:27:58;14.80;99.90
8372;DHT22;4223;48.724;8.982;2022-10-16T07:30:25;14.70;99.90
8372;DHT22;4223;48.724;8.982;2022-10-16T07:32:51;14.70;99.90
8372;DHT22;4223;48.724;8.982;2022-10-16T07:35:20;14.80;99.90
8372;DHT22;4223;48.724;8.982;2022-10-16T07:37:46;14.80;99.90
8372;DHT22;4223;48.724;8.982;2022-10-16T07:40:13;14.90;99.90
8372;DHT22;4223;48.724;8.982;2022-10-16T07:42:40;14.90;99.90
8372;DHT22;4223;48.724;8.982;2022-10-16T07:45:07;14.90;99.90
8372;DHT22;4223;48.724;8.982;2022-10-16T07:47:34;15.00;99.90
8372;DHT22;4223;48.724;8.982;2022-10-16T07:50:02;15.00;99.90
8372;DHT22;4223;48.724;8.982;2022-10-16T07:52:30;15.00;99.90
8372;DHT22;4223;48.724;8.982;2022-10-16T07:54:56;15.10;99.90
8372;DHT22;4223;48.724;8.982;2022-10-16T07:57:23;15.10;99.90
8372;DHT22;4223;48.724;8.982;2022-10-16T07:59:50;15.20;99.90
8372;DHT22;4223;48.724;8.982;2022-10-16T08:02:17;15.30;99.90
8372;DHT22;4223;48.724;8.982;2022-10-16T08:04:46;15.40;99.90
8372;DHT22;4223;48.724;8.982;2022-10-16T08:07:13;15.50;99.90
8372;DHT22;4223;48.724;8.982;2022-10-16T08:09:41;15.60;99.90
8372;DHT22;4223;48.724;8.982;2022-10-16T08:12:08;15.80;99.90
8372;DHT22;4223;48.724;8.982;2022-10-16T08:14:36;15.90;99.90
8372;DHT22;4223;48.724;8.982;2022-10-16T08:17:03;16.10;99.90
8372;DHT22;4223;48.724;8.982;2022-10-16T08:19:30;16.20;97.10
8372;DHT22;4223;48.724;8.982;2022-10-16T08:21:59;16.40;95.30
8372;DHT22;4223;48.724;8.982;2022-10-16T08:24:26;16.40;97.20
8372;DHT22;4223;48.724;8.982;2022-10-16T08:26:57;16.40;95.00
8372;DHT22;4223;48.724;8.982;2022-10-16T08:29:24;16.40;92.70
8372;DHT22;4223;48.724;8.982;2022-10-16T08:31:51;16.50;92.30
8372;DHT22;4223;48.724;8.982;2022-10-16T08:34:18;16.50;88.50
8372;DHT22;4223;48.724;8.982;2022-10-16T08:36:45;16.40;89.70
8372;DHT22;4223;48.724;8.982;2022-10-16T08:39:11;16.40;88.80
8372;DHT22;4223;48.724;8.982;2022-10-16T08:45:13;16.40;94.00
8372;DHT22;4223;48.724;8.982;2022-10-16T08:47:50;16.30;94.00
8372;DHT22;4223;48.724;8.982;2022-10-16T08:50:23;16.30;95.10
8372;DHT22;4223;48.724;8.982;2022-10-16T08:52:52;16.30;94.30
8372;DHT22;4223;48.724;8.982;2022-10-16T08:55:31;16.40;95.60
8372;DHT22;4223;48.724;8.982;2022-10-16T08:58:00;16.40;95.90
8372;DHT22;4223;48.724;8.982;2022-10-16T09:00:29;16.60;94.10
8372;DHT22;4223;48.724;8.982;2022-10-16T09:03:05;16.70;90.80
8372;DHT22;4223;48.724;8.982;2022-10-16T09:08:42;17.40;49.10
8372;DHT22;4223;48.724;8.982;2022-10-16T09:11:14;17.60;24.10
8372;DHT22;4223;48.724;8.982;2022-10-16T09:13:50;18.00;1.00
8372;DHT22;4223;48.724;8.982;2022-10-16T09:16:24;18.40;1.00
8372;DHT22;4223;48.724;8.982;2022-10-16T09:18:58;19.50;1.00
8372;DHT22;4223;48.724;8.982;2022-10-16T09:21:29;20.10;99.90
8372;DHT22;4223;48.724;8.982;2022-10-16T09:23:58;20.70;99.90
8372;DHT22;4223;48.724;8.982;2022-10-16T09:26:26;20.90;1.00
8372;DHT22;4223;48.724;8.982;2022-10-16T09:28:53;21.50;99.90
8372;DHT22;4223;48.724;8.982;2022-10-16T09:31:22;21.00;1.00
8372;DHT22;4223;48.724;8.982;2022-10-16T09:33:52;20.20;18.70
8372;DHT22;4223;48.724;8.982;2022-10-16T09:36:20;19.50;1.00
8372;DHT22;4223;48.724;8.982;2022-10-16T09:38:47;19.10;1.00
8372;DHT22;4223;48.724;8.982;2022-10-16T09:41:17;18.90;1.00
8372;DHT22;4223;48.724;8.982;2022-10-16T09:43:52;18.80;1.00
8372;DHT22;4223;48.724;8.982;2022-10-16T09:46:28;19.10;1.00
8372;DHT22;4223;48.724;8.982;2022-10-16T09:48:57;19.30;1.00
8372;DHT22;4223;48.724;8.982;2022-10-16T09:51:26;19.50;1.00
8372;DHT22;4223;48.724;8.982;2022-10-16T09:53:58;20.00;1.00
8372;DHT22;4223;48.724;8.982;2022-10-16T09:56:27;19.90;1.00
8372;DHT22;4223;48.724;8.982;2022-10-16T09:58:56;20.30;99.90
8372;DHT22;4223;48.724;8.982;2022-10-16T10:01:29;20.20;72.30
8372;DHT22;4223;48.724;8.982;2022-10-16T10:03:57;20.30;1.00
8372;DHT22;4223;48.724;8.982;2022-10-16T10:06:28;20.60;1.00
8372;DHT22;4223;48.724;8.982;2022-10-16T10:08:59;20.50;1.00
8372;DHT22;4223;48.724;8.982;2022-10-16T10:11:42;20.30;1.00
8372;DHT22;4223;48.724;8.982;2022-10-16T10:14:17;20.60;79.60
8372;DHT22;4223;48.724;8.982;2022-10-16T10:16:46;20.70;99.90
8372;DHT22;4223;48.724;8.982;2022-10-16T10:19:16;20.70;99.90
8372;DHT22;4223;48.724;8.982;2022-10-16T10:21:43;20.70;1.00
8372;DHT22;4223;48.724;8.982;2022-10-16T10:24:11;20.60;1.00
8372;DHT22;4223;48.724;8.982;2022-10-16T10:26:45;20.70;99.90
8372;DHT22;4223;48.724;8.982;2022-10-16T10:29:18;20.60;1.00
8372;DHT22;4223;48.724;8.982;2022-10-16T10:31:58;20.40;99.90
8372;DHT22;4223;48.724;8.982;2022-10-16T10:34:47;20.40;1.00
8372;DHT22;4223;48.724;8.982;2022-10-16T10:37:29;20.50;1.00
8372;DHT22;4223;48.724;8.982;2022-10-16T10:40:08;20.40;1.00
8372;DHT22;4223;48.724;8.982;2022-10-16T10:42:46;21.10;99.90
8372;DHT22;4223;48.724;8.982;2022-10-16T10:45:23;22.40;99.90
8372;DHT22;4223;48.724;8.982;2022-10-16T10:48:03;24.20;99.90
8372;DHT22;4223;48.724;8.982;2022-10-16T10:50:39;25.00;1.00
8372;DHT22;4223;48.724;8.982;2022-10-16T10:53:18;25.40;1.00
8372;DHT22;4223;48.724;8.982;2022-10-16T10:55:53;25.40;1.00
8372;DHT22;4223;48.724;8.982;2022-10-16T11:01:17;24.10;1.00
8372;DHT22;4223;48.724;8.982;2022-10-16T11:06:54;23.40;99.90
8372;DHT22;4223;48.724;8.982;2022-10-16T11:09:25;23.30;99.90
8372;DHT22;4223;48.724;8.982;2022-10-16T11:11:58;23.20;1.00
8372;DHT22;4223;48.724;8.982;2022-10-16T11:14:29;22.90;99.90
8372;DHT22;4223;48.724;8.982;2022-10-16T11:17:01;22.80;99.90
8372;DHT22;4223;48.724;8.982;2022-10-16T11:19:37;22.60;1.00
8372;DHT22;4223;48.724;8.982;2022-10-16T11:22:13;22.50;1.00
8372;DHT22;4223;48.724;8.982;2022-10-16T11:24:46;22.30;1.00
8372;DHT22;4223;48.724;8.982;2022-10-16T11:27:17;22.30;99.90
8372;DHT22;4223;48.724;8.982;2022-10-16T11:29:51;22.70;99.90
8372;DHT22;4223;48.724;8.982;2022-10-16T11:32:23;22.70;1.00
8372;DHT22;4223;48.724;8.982;2022-10-16T11:34:57;23.00;98.80
8372;DHT22;4223;48.724;8.982;2022-10-16T11:37:29;24.20;51.10
8372;DHT22;4223;48.724;8.982;2022-10-16T11:40:03;25.30;1.00
8372;DHT22;4223;48.724;8.982;2022-10-16T11:42:36;26.10;1.00
8372;DHT22;4223;48.724;8.982;2022-10-16T11:45:15;26.60;1.00
8372;DHT22;4223;48.724;8.982;2022-10-16T11:47:51;26.30;1.00
8372;DHT22;4223;48.724;8.982;2022-10-16T11:50:24;26.40;99.90
8372;DHT22;4223;48.724;8.982;2022-10-16T11:52:56;26.30;99.90
8372;DHT22;4223;48.724;8.982;2022-10-16T11:55:30;26.90;99.90
8372;DHT22;4223;48.724;8.982;2022-10-16T11:58:01;26.40;99.90
8372;DHT22;4223;48.724;8.982;2022-10-16T12:00:35;25.90;99.90
8372;DHT22;4223;48.724;8.982;2022-10-16T12:03:12;26.20;99.90
8372;DHT22;4223;48.724;8.982;2022-10-16T12:06:00;26.50;99.90
8372;DHT22;4223;48.724;8.982;2022-10-16T12:08:28;27.00;99.90
8372;DHT22;4223;48.724;8.982;2022-10-16T12:11:07;27.30;99.90
8372;DHT22;4223;48.724;8.982;2022-10-16T12:13:36;27.00;99.90
8372;DHT22;4223;48.724;8.982;2022-10-16T12:16:20;26.30;99.90
8372;DHT22;4223;48.724;8.982;2022-10-16T12:18:48;26.40;99.90
8372;DHT22;4223;48.724;8.982;2022-10-16T12:21:17;26.50;99.90
8372;DHT22;4223;48.724;8.982;2022-10-16T12:23:49;26.70;99.90
8372;DHT22;4223;48.724;8.982;2022-10-16T12:26:24;26.60;99.90
8372;DHT22;4223;48.724;8.982;2022-10-16T12:28:52;26.50;99.90
8372;DHT22;4223;48.724;8.982;2022-10-16T12:31:19;26.20;99.90
8372;DHT22;4223;48.724;8.982;2022-10-16T12:33:57;25.90;99.90
8372;DHT22;4223;48.724;8.982;2022-10-16T12:36:30;25.50;99.90
8372;DHT22;4223;48.724;8.982;2022-10-16T12:38:59;24.80;99.90
8372;DHT22;4223;48.724;8.982;2022-10-16T12:41:28;24.40;99.90
8372;DHT22;4223;48.724;8.982;2022-10-16T12:43:56;23.80;99.90
8372;DHT22;4223;48.724;8.982;2022-10-16T12:46:38;23.50;1.00
8372;DHT22;4223;48.724;8.982;2022-10-16T12:49:19;23.30;1.00
8372;DHT22;4223;48.724;8.982;2022-10-16T12:51:48;23.20;1.00
8372;DHT22;4223;48.724;8.982;2022-10-16T12:54:17;23.10;1.00
8372;DHT22;4223;48.724;8.982;2022-10-16T12:56:53;23.00;1.00
8372;DHT22;4223;48.724;8.982;2022-10-16T12:59:31;22.70;1.00
8372;DHT22;4223;48.724;8.982;2022-10-16T13:05:14;22.60;1.00
8372;DHT22;4223;48.724;8.982;2022-10-16T13:07:56;22.70;99.90
8372;DHT22;4223;48.724;8.982;2022-10-16T13:10:31;22.60;99.90
8372;DHT22;4223;48.724;8.982;2022-10-16T13:13:12;22.60;99.90
8372;DHT22;4223;48.724;8.982;2022-10-16T13:15:53;22.50;99.90
8372;DHT22;4223;48.724;8.982;2022-10-16T13:18:26;22.70;16.60
8372;DHT22;4223;48.724;8.982;2022-10-16T13:21:03;22.80;99.90
8372;DHT22;4223;48.724;8.982;2022-10-16T13:23:44;22.90;99.90
8372;DHT22;4223;48.724;8.982;2022-10-16T13:26:22;23.00;99.90
8372;DHT22;4223;48.724;8.982;2022-10-16T13:28:50;23.10;99.90
8372;DHT22;4223;48.724;8.982;2022-10-16T13:31:19;23.20;1.00
8372;DHT22;4223;48.724;8.982;2022-10-16T13:33:49;23.10;99.90
8372;DHT22;4223;48.724;8.982;2022-10-16T13:36:22;23.30;41.40
8372;DHT22;4223;48.724;8.982;2022-10-16T13:39:06;23.50;99.90
8372;DHT22;4223;48.724;8.982;2022-10-16T13:41:36;23.60;1.00
8372;DHT22;4223;48.724;8.982;2022-10-16T13:44:03;23.70;1.00
8372;DHT22;4223;48.724;8.982;2022-10-16T13:46:31;23.90;1.00
8372;DHT22;4223;48.724;8.982;2022-10-16T13:49:02;23.80;1.00
8372;DHT22;4223;48.724;8.982;2022-10-16T13:51:30;23.80;1.00
8372;DHT22;4223;48.724;8.982;2022-10-16T13:53:59;23.50;1.00
8372;DHT22;4223;48.724;8.982;2022-10-16T13:56:27;23.30;1.00
8372;DHT22;4223;48.724;8.982;2022-10-16T13:58:59;23.20;1.00
8372;DHT22;4223;48.724;8.982;2022-10-16T14:01:28;23.10;92.70
8372;DHT22;4223;48.724;8.982;2022-10-16T14:04:01;23.00;99.90
8372;DHT22;4223;48.724;8.982;2022-10-16T14:06:28;22.90;1.00
8372;DHT22;4223;48.724;8.982;2022-10-16T14:08:59;22.60;99.90
8372;DHT22;4223;48.724;8.982;2022-10-16T14:11:27;22.60;1.00
8372;DHT22;4223;48.724;8.982;2022-10-16T14:13:55;22.40;1.00
8372;DHT22;4223;48.724;8.982;2022-10-16T14:16:23;22.20;1.00
8372;DHT22;4223;48.724;8.982;2022-10-16T14:18:56;22.10;1.00
8372;DHT22;4223;48.724;8.982;2022-10-16T14:21:24;22.00;1.00
8372;DHT22;4223;48.724;8.982;2022-10-16T14:23:52;22.20;99.90
8372;DHT22;4223;48.724;8.982;2022-10-16T14:26:23;22.50;4.60
8372;DHT22;4223;48.724;8.982;2022-10-16T14:29:03;23.50;99.90
8372;DHT22;4223;48.724;8.982;2022-10-16T14:31:33;23.60;99.90
8372;DHT22;4223;48.724;8.982;2022-10-16T14:34:01;23.40;1.00
8372;DHT22;4223;48.724;8.982;2022-10-16T14:36:29;23.30;1.00
8372;DHT22;4223;48.724;8.982;2022-10-16T14:39:04;23.30;1.00
8372;DHT22;4223;48.724;8.982;2022-10-16T14:41:41;23.30;1.00
8372;DHT22;4223;48.724;8.982;2022-10-16T14:44:10;23.50;99.90
8372;DHT22;4223;48.724;8.982;2022-10-16T14:46:39;23.70;1.00
8372;DHT22;4223;48.724;8.982;2022-10-16T14:49:16;23.70;40.40
8372;DHT22;4223;48.724;8.982;2022-10-16T14:51:45;23.90;1.00
8372;DHT22;4223;48.724;8.982;2022-10-16T14:54:13;24.10;1.00
8372;DHT22;4223;48.724;8.982;2022-10-16T14:56:47;24.00;1.00
8372;DHT22;4223;48.724;8.982;2022-10-16T14:59:17;24.00;1.00
8372;DHT22;4223;48.724;8.982;2022-10-16T15:01:45;23.60;1.00
8372;DHT22;4223;48.724;8.982;2022-10-16T15:04:13;23.40;1.00
8372;DHT22;4223;48.724;8.982;2022-10-16T15:06:41;23.30;1.00
8372;DHT22;4223;48.724;8.982;2022-10-16T15:09:08;23.20;1.00
8372;DHT22;4223;48.724;8.982;2022-10-16T15:11:35;22.90;91.70
8372;DHT22;4223;48.724;8.982;2022-10-16T15:14:04;22.80;99.90
8372;DHT22;4223;48.724;8.982;2022-10-16T15:16:31;22.60;99.90
8372;DHT22;4223;48.724;8.982;2022-10-16T15:18:58;22.50;24.80
8372;DHT22;4223;48.724;8.982;2022-10-16T15:21:27;22.40;99.90
8372;DHT22;4223;48.724;8.982;2022-10-16T15:23:54;22.20;1.00
8372;DHT22;4223;48.724;8.982;2022-10-16T15:26:22;22.10;99.90
8372;DHT22;4223;48.724;8.982;2022-10-16T15:28:49;22.10;83.70
8372;DHT22;4223;48.724;8.982;2022-10-16T15:31:18;22.00;90.90
8372;DHT22;4223;48.724;8.982;2022-10-16T15:33:45;21.80;1.00
8372;DHT22;4223;48.724;8.982;2022-10-16T15:36:23;21.60;1.00
8372;DHT22;4223;48.724;8.982;2022-10-16T15:38:51;21.50;45.30
8372;DHT22;4223;48.724;8.982;2022-10-16T15:41:19;21.30;99.90
8372;DHT22;4223;48.724;8.982;2022-10-16T15:43:48;21.10;99.90
8372;DHT22;4223;48.724;8.982;2022-10-16T15:46:17;20.90;1.00
8372;DHT22;4223;48.724;8.982;2022-10-16T15:48:45;20.80;99.90
8372;DHT22;4223;48.724;8.982;2022-10-16T15:51:12;20.70;1.00
8372;DHT22;4223;48.724;8.982;2022-10-16T15:53:39;20.60;1.00
8372;DHT22;4223;48.724;8.982;2022-10-16T15:56:08;20.40;1.00
8372;DHT22;4223;48.724;8.982;2022-10-16T15:58:35;20.30;1.00
8372;DHT22;4223;48.724;8.982;2022-10-16T16:01:03;20.20;1.00
8372;DHT22;4223;48.724;8.982;2022-10-16T16:03:30;20.00;1.00
8372;DHT22;4223;48.724;8.982;2022-10-16T16:06:04;19.90;1.00
8372;DHT22;4223;48.724;8.982;2022-10-16T16:08:32;19.70;1.00
8372;DHT22;4223;48.724;8.982;2022-10-16T16:10:59;19.70;1.00
8372;DHT22;4223;48.724;8.982;2022-10-16T16:13:27;19.50;1.00
8372;DHT22;4223;48.724;8.982;2022-10-16T16:15:54;19.40;1.00
8372;DHT22;4223;48.724;8.982;2022-10-16T16:18:21;19.30;1.20
8372;DHT22;4223;48.724;8.982;2022-10-16T16:20:49;19.20;18.10
8372;DHT22;4223;48.724;8.982;2022-10-16T16:23:17;19.00;21.80
8372;DHT22;4223;48.724;8.982;2022-10-16T16:25:44;18.90;21.70
8372;DHT22;4223;48.724;8.982;2022-10-16T16:28:11;18.80;27.40
8372;DHT22;4223;48.724;8.982;2022-10-16T16:30:39;18.60;50.20
8372;DHT22;4223;48.724;8.982;2022-10-16T16:33:06;18.50;37.50
8372;DHT22;4223;48.724;8.982;2022-10-16T16:35:33;18.40;43.80
8372;DHT22;4223;48.724;8.982;2022-10-16T16:38:00;18.20;57.60